Ergebnisliste vom: 21.08.2015 - Eierwegelauf2015 - 14 km

weitere Ergebnisse >>

Platz Pl.m Pl.w Stnr. Name,Vorname Verein GJ AK Akm Akw Endzeit RŘckst.
1 1   145 Eschler, Rene SV Elbland Coswig Mei├čen 75 M40 1   0:49:35 0:00:00
2 2   107 Thieme, Holger SC Riesa 72 M40 2   0:49:47 0:00:12
3 3   136 Sittner, Falk Lauff├Ârdergruppe Gruna 81 M30 1   0:50:21 0:00:46
4 4   110 ├ľhmichen, Matthias Traktor Mautitz 87 M20 1   0:50:57 0:01:22
5 5   155 Berndt, Thomas SSV Planeta Radebeul 68 M45 1   0:51:53 0:02:18
6 6   126 Wolf, Daniel Gro├čenhain 74 M40 3   0:52:03 0:02:28
7 7   159 Goldbach, Thomas SC Riesa 83 M30 2   0:52:24 0:02:49
8 8   167 Gast, Toni SV Stauchitz 47 76 M35 1   0:52:30 0:02:55
9 9   161 Hain, Hagen Coswig 74 M40 4   0:52:49 0:03:14
10 10   149 Wittwer, Frank Dresden 68 M45 2   0:53:47 0:04:12
11 11   106 Schwan, Ralph ATSV Kirchseeon (by) 65 M50 1   0:54:30 0:04:55
12 12   153 B├Âhme, Kai LG Priestewitz 70 M45 3   0:54:39 0:05:04
13 13   102 P├Ąpscheck, Silvio Gro├čenhain 82 M30 3   0:55:21 0:05:46
14 14   105 Noack gen Gr├Ąfe, Stefan LG TuS Weinb├Âhla 79 M35 2   0:55:33 0:05:58
15 15   140 Mutzke, Thomas Wei├čig a. Rasch├╝tz 75 M40 5   0:55:51 0:06:16
16 16   139 Kretzschmar, Achim Holzhandel Ganzig 67 M45 4   0:56:13 0:06:38
17 17   104 Sch├╝tzka, Georg LG TuS Weinb├Âhla 86 M20 2   0:56:25 0:06:50
18 18   120 K├╝mmel, Stephan LG Priestewitz 66 M45 5   0:56:30 0:06:55
19 19   134 Umlauf, Steffen SV Hellerau 61 M50 2   0:56:36 0:07:01
20 20   152 Schliwa, Sebastian Team Tempus/SV Elbland Coswig Mei├čen 83 M30 4   0:56:39 0:07:04
21   1 101 Stich, Grit Radebeul 70 W45+   1 0:57:03 0:07:28
22 21   111 Cierpka, Jan Riesa 69 M45 6   0:57:13 0:07:38
23 22   151 Kn├Âfel, Detlef Mei├čen 63 M50 3   0:57:29 0:07:54
24 23   118 Fleischer, Torsten Coswig 67 M45 7   0:57:44 0:08:09
25 24   143 Becker, Heiko Strehla 68 M45 8   0:57:54 0:08:19
26 25   122 Dewitz, Heiko ESV Lok D├Âbeln 64 M50 4   0:58:09 0:08:34
27 26   147 Garbsch, Maik Moritzburg 90 M20 3   0:58:34 0:08:59
28 27   133 Balzer, Frank SV Einheit Grimma 58 M55+ 1   0:58:38 0:09:03
29 28   116 Bransch, Ulli Laufgruppe Nossen 84 M30 5   0:59:03 0:09:28
30 29   132 B├╝di, Karel LRG Adonis Riesa 70 M45 9   0:59:07 0:09:32
31 30   109 Werner, Enrico Coswig 79 M35 3   0:59:09 0:09:34
32 31   123 Fischer, Christian Chemnitz 87 M20 4   0:59:31 0:09:56
33 32   163 Krassek, Leo Moritzburger Triathlonverein 96 M20 5   0:59:55 0:10:20
34 33   168 G├Ąbler, Andreas LRC Mittelsachsen Oschatz 79 M35 4   1:00:47 0:11:12
35 34   103 Ruhland, J├Ârg Team Sport Ruscher 68 M45 10   1:01:33 0:11:58
36   2 170 Hammer, Grit Mei├čen 85 W30   1 1:01:46 0:12:11
37   3 164 Hammer, Dorothea SC Riesa Triathlon 80 W35   1 1:02:11 0:12:36
38   4 121 Dewitz, Silke ESV Lok D├Âbeln 67 W45+   2 1:02:34 0:12:59
39 35   130 M├Âbius, Tino Diesbar-Seu├člitz 64 M50 5   1:02:46 0:13:11
40 36   141 Brandt, Remo Laufgruppe Wacker N├╝nchritz 70 M45 11   1:03:04 0:13:29
41 37   138 Feder, Hartmut Meissen 60 M55+ 2   1:03:50 0:14:15
42   5 162 Jeschke, Katrin Team Endurance Radebeul 64 W45+   3 1:03:57 0:14:22
43   6 146 Gittel, Juliane Lauftreff Wacker Chemie AG 79 W35   2 1:04:07 0:14:32
44   7 148 Essig, Carolin Oberkollbach 86 W20   1 1:04:08 0:14:33
45 38   169 Noppes, Ralf SV Nordwind Naund├Ârfel 76 M35 5   1:05:21 0:15:46
46 39   154 Joestel, Klaus Niederau 62 M50 6   1:05:22 0:15:47
47 40   129 Jakat, Gerd Eestly Husky Race 63 M50 7   1:06:08 0:16:33
48 41   115 Steinicke, Wilfried Terpitz 56 M55+ 3   1:06:15 0:16:40
49 42   108 Richter, Rene   65 M50 8   1:06:47 0:17:12
50 43   171 Lenart, Achim Pahrenz 57 M55+ 4   1:07:49 0:18:14
51 44   125 M├╝ller, Uwe Leisnig 70 M45 12   1:08:17 0:18:42
52 45   113 K├Ârbs, Dirk Laufgruppe Nossen 65 M50 9   1:08:36 0:19:01
53 46   172 Tille, Peter Gro├čenhain 58 M55+ 5   1:10:14 0:20:39
54 47   114 Vogel, Dieter Laufgruppe Nossen 65 M50 10   1:10:26 0:20:51
55   8 128 Heyer, Ina Chemnitz 80 W35   3 1:11:15 0:21:40
56 48   124 Wick, Peter Weinb├Âhla 59 M55+ 6   1:11:23 0:21:48
57   9 160 Hofmann, Katrin TSV Dresden 67 W45+   4 1:11:32 0:21:57
58   10 165 Preu├čner, Kristina Lauffreunde N├╝ne 74 W40   1 1:11:40 0:22:05
59 49   144 Slany, Bernd LandMAXX-Team 57 M55+ 7   1:12:40 0:23:05
60 50   131 Grasse, Matthias SV Rot Wei├č Hademar 68 M45 13   1:12:52 0:23:17
61   11 142 Hammer, Ines Strehla 70 W45+   5 1:13:08 0:23:33
62 51   112 B├Ąnsch, Gerd Laufgruppe Nossen 73 M40 6   1:13:20 0:23:45
63   12 119 K├╝mmel, Petra LG Priestewitz 65 W45+   6 1:14:10 0:24:35
64   13 135 Kothe, Melanie SV Scharfenberg 78 W35   4 1:14:56 0:25:21
65   14 117 Richter, Manuela LG Priestewitz 74 W40   2 1:17:24 0:27:49
66 52   166 Raschke, Alexander Gro├čenhain 87 M20 6   1:18:33 0:28:58
67   15 150 M├╝ller, Michaela TV Frisch Auf Mei├čen 72 W40   3 1:19:04 0:29:29
68   16 127 Putzmann, Peggy Chemnitz 95 W20   2 1:24:10 0:34:35
69   17 137 Feder, Anja VLH 81 W30   2 1:29:09 0:39:34
70   18 156 Beger, Angela Coswig 79 W35   5 1:47:35 0:58:00
(c) 1990-2020 Blue Wonder Sport Promotion - Andreas Burow - Zeitnahme & Auswertung - www.Triathlon-Service.de